Time;durP1;ratioP1;P1;durP2;ratioP2;P2;SDS_P1;SDS_P2;PMS_P1;PMS_P2;Temp;Humidity;BMP_temperature;BMP_pressure;BME280_temperature;BME280_humidity;BME280_pressure;Samples;Min_cycle;Max_cycle;Signal;HPM_P1;HPM_P2
2022/05/27 00:01:08;;;;;;;11.35;4.57;;;14.20;99.90;;;;;;4940417;29;20044;-94
2022/05/27 00:03:35;;;;;;;11.63;4.80;;;14.20;99.90;;;;;;4926232;29;20501;-95
2022/05/27 00:06:00;;;;;;;10.65;4.82;;;14.20;99.90;;;;;;4948984;28;20047;-94
2022/05/27 00:08:26;;;;;;;10.10;4.63;;;14.10;99.90;;;;;;4938415;29;20047;-93
2022/05/27 00:10:54;;;;;;;11.95;4.95;;;14.10;99.90;;;;;;4937078;29;20122;-94
2022/05/27 00:13:19;;;;;;;11.48;4.90;;;14.10;99.90;;;;;;4947978;29;20052;-92
2022/05/27 00:15:47;;;;;;;9.98;4.53;;;14.10;99.90;;;;;;4944783;29;20027;-95
2022/05/27 00:18:13;;;;;;;11.90;4.60;;;14.10;99.90;;;;;;4932201;29;20204;-94
2022/05/27 00:20:39;;;;;;;11.82;4.95;;;14.00;99.90;;;;;;4945147;29;20072;-94
2022/05/27 00:23:05;;;;;;;10.10;4.32;;;14.00;99.90;;;;;;4945240;29;20126;-93
2022/05/27 00:25:33;;;;;;;11.32;4.75;;;14.00;99.90;;;;;;4942282;29;20050;-94
2022/05/27 00:27:59;;;;;;;9.23;4.93;;;14.00;99.90;;;;;;4946816;29;20047;-95
2022/05/27 00:30:26;;;;;;;9.05;3.95;;;13.90;99.90;;;;;;4945271;29;20054;-94
2022/05/27 00:32:52;;;;;;;10.10;4.00;;;13.90;99.90;;;;;;4950173;28;20047;-95
2022/05/27 00:35:17;;;;;;;10.52;4.50;;;13.90;99.90;;;;;;4947259;29;20045;-94
2022/05/27 00:37:43;;;;;;;8.63;4.07;;;13.90;99.90;;;;;;4937000;29;20119;-96
2022/05/27 00:40:12;;;;;;;10.40;4.05;;;13.80;99.90;;;;;;5086098;23;20054;-95
2022/05/27 00:42:40;;;;;;;9.88;4.10;;;13.80;99.90;;;;;;4975856;28;20055;-94
2022/05/27 00:45:06;;;;;;;9.15;4.40;;;13.80;99.90;;;;;;4991602;23;20075;-94
2022/05/27 00:47:35;;;;;;;12.30;5.30;;;13.70;99.90;;;;;;4959342;29;20090;-96
2022/05/27 00:50:06;;;;;;;10.57;4.90;;;13.70;99.90;;;;;;4953049;29;20048;-95
2022/05/27 00:52:37;;;;;;;8.32;4.03;;;13.70;99.90;;;;;;4955163;29;20054;-96
2022/05/27 00:55:05;;;;;;;;;;;13.70;99.90;;;;;;5057941;23;20070;-95
2022/05/27 00:57:40;;;;;;;10.90;4.70;;;13.60;99.90;;;;;;4969057;28;19989;-95
2022/05/27 01:00:16;;;;;;;11.38;4.90;;;13.70;99.90;;;;;;4958236;28;20059;-96
2022/05/27 01:02:42;;;;;;;11.10;4.57;;;13.70;99.90;;;;;;4981963;28;20047;-95
2022/05/27 01:05:11;;;;;;;9.90;4.60;;;13.70;99.90;;;;;;4983160;28;20054;-95
2022/05/27 01:07:37;;;;;;;10.95;4.75;;;13.60;99.90;;;;;;4963039;28;20066;-96
2022/05/27 01:10:06;;;;;;;11.30;4.95;;;13.80;99.90;;;;;;4977305;28;20115;-94
2022/05/27 01:12:38;;;;;;;12.27;5.57;;;13.60;99.90;;;;;;4978711;28;20046;-94
2022/05/27 01:15:11;;;;;;;12.70;5.63;;;13.70;99.90;;;;;;4971069;28;20103;-95
2022/05/27 01:17:58;;;;;;;12.85;5.97;;;13.70;99.90;;;;;;4970368;28;20055;-95
2022/05/27 01:20:48;;;;;;;14.02;6.07;;;13.60;99.90;;;;;;4975092;28;20082;-94
2022/05/27 01:23:52;;;;;;;10.88;5.68;;;13.70;99.90;;;;;;4961869;28;20677;-94
2022/05/27 01:26:44;;;;;;;11.20;5.93;;;13.60;99.90;;;;;;4973906;28;20117;-96
2022/05/27 01:29:32;;;;;;;10.73;5.75;;;13.60;99.90;;;;;;4963651;28;20066;-94
2022/05/27 01:32:16;;;;;;;12.15;6.00;;;13.60;99.90;;;;;;4950514;28;20047;-92
2022/05/27 01:35:13;;;;;;;13.73;5.80;;;13.50;99.90;;;;;;4964234;28;20460;-92
2022/05/27 01:37:47;;;;;;;13.20;5.90;;;13.50;99.90;;;;;;4953995;28;20065;-90
2022/05/27 01:40:25;;;;;;;12.05;5.90;;;13.50;99.90;;;;;;4957980;28;20050;-94
2022/05/27 01:43:09;;;;;;;12.90;5.95;;;13.50;99.90;;;;;;4949302;28;20084;-93
2022/05/27 01:45:50;;;;;;;10.35;5.32;;;13.40;99.90;;;;;;4956840;28;20114;-92
2022/05/27 01:48:23;;;;;;;14.45;5.53;;;13.40;99.90;;;;;;4962292;28;20138;-89
2022/05/27 01:51:13;;;;;;;12.75;5.70;;;13.40;99.90;;;;;;4937525;28;20400;-91
2022/05/27 01:54:08;;;;;;;15.20;6.60;;;13.40;99.90;;;;;;4956052;28;20415;-92
2022/05/27 01:56:47;;;;;;;14.32;5.85;;;13.40;99.90;;;;;;4959765;28;20315;-91
2022/05/27 01:59:27;;;;;;;12.30;5.53;;;13.40;99.90;;;;;;4949630;28;20086;-92
2022/05/27 02:01:59;;;;;;;12.68;5.55;;;13.30;99.90;;;;;;4954050;28;20514;-90
2022/05/27 02:04:44;;;;;;;15.00;5.57;;;13.30;99.90;;;;;;4965094;28;20031;-90
2022/05/27 02:07:17;;;;;;;15.15;6.15;;;13.30;99.90;;;;;;4962112;28;20374;-86
2022/05/27 02:10:03;;;;;;;15.10;6.32;;;13.30;99.90;;;;;;4966389;28;20042;-86
2022/05/27 02:12:35;;;;;;;16.83;5.82;;;13.30;99.90;;;;;;4949418;28;20093;-87
2022/05/27 02:15:30;;;;;;;13.32;5.57;;;13.30;99.90;;;;;;4963956;28;20099;-88
2022/05/27 02:18:11;;;;;;;13.40;5.70;;;13.30;99.90;;;;;;4954438;28;20055;-87
2022/05/27 02:20:44;;;;;;;14.82;5.88;;;13.30;99.90;;;;;;4964816;28;20038;-87
2022/05/27 02:23:18;;;;;;;17.95;6.43;;;13.30;99.90;;;;;;4961364;28;20070;-87
2022/05/27 02:25:46;;;;;;;16.20;6.40;;;13.30;99.90;;;;;;4958099;28;20054;-86
2022/05/27 02:28:18;;;;;;;17.17;5.97;;;13.30;99.90;;;;;;4962356;28;20432;-87
2022/05/27 02:30:48;;;;;;;15.45;5.95;;;13.30;99.90;;;;;;4965292;28;20062;-87
2022/05/27 02:36:12;;;;;;;13.40;5.10;;;13.20;99.90;;;;;;4960656;28;20087;-86
2022/05/27 02:38:38;;;;;;;16.27;5.80;;;13.20;99.90;;;;;;4940155;28;20142;-87
2022/05/27 02:41:20;;;;;;;16.58;5.80;;;13.20;99.90;;;;;;4948089;28;20129;-87
2022/05/27 02:44:21;;;;;;;15.73;5.60;;;13.20;99.90;;;;;;4943559;28;20126;-87
2022/05/27 02:47:03;;;;;;;16.40;6.23;;;13.10;99.90;;;;;;4887677;29;20056;-86
2022/05/27 02:49:34;;;;;;;14.88;6.18;;;13.10;99.90;;;;;;4921456;29;20078;-86
2022/05/27 02:52:15;;;;;;;16.33;6.00;;;13.00;99.90;;;;;;4919702;29;20615;-89
2022/05/27 02:54:46;;;;;;;13.85;6.03;;;13.00;99.90;;;;;;4905623;29;20068;-87
2022/05/27 02:57:14;;;;;;;13.85;5.75;;;13.00;99.90;;;;;;4891095;29;20100;-86
2022/05/27 02:59:41;;;;;;;17.25;5.80;;;12.90;99.90;;;;;;4907269;29;20059;-87
2022/05/27 03:02:11;;;;;;;17.42;5.88;;;12.90;99.90;;;;;;4905969;29;20475;-88
2022/05/27 03:04:40;;;;;;;18.63;5.75;;;12.90;99.90;;;;;;4887560;29;20048;-86
2022/05/27 03:07:26;;;;;;;16.40;6.03;;;12.90;99.90;;;;;;4906351;29;20085;-86
2022/05/27 03:09:54;;;;;;;15.90;6.22;;;12.90;99.90;;;;;;4919692;29;21028;-87
2022/05/27 03:12:35;;;;;;;18.30;5.97;;;12.90;99.90;;;;;;4903567;29;20044;-86
2022/05/27 03:15:18;;;;;;;18.67;6.47;;;12.90;99.90;;;;;;4918678;29;20100;-87
2022/05/27 03:18:02;;;;;;;15.15;6.28;;;12.90;99.90;;;;;;4905756;29;20055;-86
2022/05/27 03:21:02;;;;;;;17.88;7.00;;;12.90;99.90;;;;;;4874311;29;20192;-86
2022/05/27 03:23:34;;;;;;;18.35;7.00;;;12.90;99.90;;;;;;4939333;28;20058;-86
2022/05/27 03:26:15;;;;;;;19.20;7.28;;;12.90;99.90;;;;;;4962062;28;20054;-86
2022/05/27 03:29:30;;;;;;;18.83;7.13;;;12.80;99.90;;;;;;4952769;28;20106;-86
2022/05/27 03:31:59;;;;;;;17.77;6.30;;;12.80;99.90;;;;;;4922716;29;20063;-85
2022/05/27 03:34:32;;;;;;;17.65;6.78;;;12.80;99.90;;;;;;4923554;29;20087;-87
2022/05/27 03:37:31;;;;;;;16.58;6.70;;;12.80;99.90;;;;;;4892770;29;20063;-86
2022/05/27 03:40:09;;;;;;;18.75;6.43;;;12.80;99.90;;;;;;4860158;29;20053;-87
2022/05/27 03:42:37;;;;;;;15.45;6.43;;;12.70;99.90;;;;;;4870031;29;20319;-87
2022/05/27 03:45:09;;;;;;;14.90;6.07;;;12.70;99.90;;;;;;4872846;29;20057;-87
2022/05/27 03:47:37;;;;;;;18.58;6.45;;;12.70;99.90;;;;;;4856198;29;20049;-86
2022/05/27 03:50:04;;;;;;;21.10;6.43;;;12.80;99.90;;;;;;4864402;29;20063;-86
2022/05/27 03:52:36;;;;;;;18.33;6.22;;;12.70;99.90;;;;;;4871273;29;20063;-86
2022/05/27 03:55:02;;;;;;;15.93;6.40;;;12.80;99.90;;;;;;4871519;29;20422;-87
2022/05/27 03:57:28;;;;;;;18.65;6.90;;;12.80;99.90;;;;;;4871002;29;20465;-87
2022/05/27 03:59:53;;;;;;;15.68;6.35;;;12.80;99.90;;;;;;4856729;29;20052;-87
2022/05/27 04:02:19;;;;;;;14.80;6.25;;;12.80;99.90;;;;;;4887208;29;20097;-88
2022/05/27 04:04:45;;;;;;;19.77;6.15;;;12.80;99.90;;;;;;4872083;29;20482;-87
2022/05/27 04:07:10;;;;;;;20.75;6.22;;;12.90;99.90;;;;;;4872337;29;20055;-86
2022/05/27 04:09:36;;;;;;;14.70;5.65;;;12.90;99.90;;;;;;4868492;29;20161;-88
2022/05/27 04:12:03;;;;;;;17.30;5.43;;;12.90;99.90;;;;;;4873260;29;20048;-86
2022/05/27 04:14:28;;;;;;;15.85;5.50;;;12.90;99.90;;;;;;4885019;29;20051;-88
2022/05/27 04:17:27;;;;;;;18.38;5.80;;;12.90;99.90;;;;;;4940509;28;20051;-87
2022/05/27 04:19:40;;;;;;;17.73;6.07;;;12.90;99.90;;;;;;4952464;28;20043;-88
2022/05/27 04:22:05;;;;;;;16.10;4.88;;;12.90;99.90;;;;;;4958318;28;20512;-88
2022/05/27 04:24:33;;;;;;;15.68;5.07;;;12.90;99.90;;;;;;4966819;28;20444;-88
2022/05/27 04:26:59;;;;;;;15.70;5.45;;;12.90;99.90;;;;;;4965243;28;20065;-88
2022/05/27 04:29:24;;;;;;;17.20;5.70;;;12.90;99.90;;;;;;4951358;28;20050;-87
2022/05/27 04:31:50;;;;;;;18.42;4.85;;;12.90;99.90;;;;;;4955804;28;20125;-88
2022/05/27 04:34:15;;;;;;;16.88;4.60;;;12.90;99.90;;;;;;4951318;28;20045;-90
2022/05/27 04:36:41;;;;;;;14.45;4.70;;;12.90;99.90;;;;;;4967943;28;20073;-90
2022/05/27 04:39:07;;;;;;;15.98;4.70;;;12.80;99.90;;;;;;4950581;28;20125;-87
2022/05/27 04:41:32;;;;;;;18.65;4.70;;;12.90;99.90;;;;;;4961448;28;20070;-92
2022/05/27 04:43:58;;;;;;;14.85;4.57;;;13.00;99.90;;;;;;4960895;28;20129;-91
2022/05/27 04:46:24;;;;;;;14.20;4.57;;;12.90;99.90;;;;;;4949632;28;20141;-89
2022/05/27 04:48:50;;;;;;;12.25;4.05;;;12.90;99.90;;;;;;4960241;28;20098;-90
2022/05/27 04:51:15;;;;;;;15.57;4.32;;;12.90;99.90;;;;;;4964603;28;20047;-90
2022/05/27 04:53:41;;;;;;;17.50;4.30;;;12.90;99.90;;;;;;4945755;28;20055;-93
2022/05/27 04:56:09;;;;;;;13.00;4.13;;;12.90;99.90;;;;;;4963210;28;20492;-93
2022/05/27 04:58:34;;;;;;;14.70;4.22;;;12.90;99.90;;;;;;4964342;28;20462;-91
2022/05/27 05:01:00;;;;;;;13.10;4.20;;;12.90;99.90;;;;;;4961254;28;20126;-93
2022/05/27 05:03:26;;;;;;;16.95;4.80;;;12.90;99.90;;;;;;4947288;28;20051;-93
2022/05/27 05:05:51;;;;;;;12.27;3.63;;;12.90;99.90;;;;;;4947032;28;20042;-89
2022/05/27 05:08:33;;;;;;;15.15;4.15;;;12.90;99.90;;;;;;4940249;28;20386;-95
2022/05/27 05:10:59;;;;;;;;;;;12.90;99.90;;;;;;4944784;28;20055;-94
2022/05/27 05:13:25;;;;;;;14.80;4.13;;;12.80;99.90;;;;;;4967739;28;19932;-93
2022/05/27 05:15:51;;;;;;;15.30;4.35;;;12.80;99.90;;;;;;4966395;28;20482;-94
2022/05/27 05:18:16;;;;;;;15.18;4.00;;;12.90;99.90;;;;;;4985668;23;20055;-94
2022/05/27 05:20:42;;;;;;;13.80;3.40;;;12.80;99.90;;;;;;4922970;29;20090;-92
2022/05/27 05:23:08;;;;;;;17.17;3.90;;;12.90;99.90;;;;;;4942277;29;20048;-94
2022/05/27 05:25:33;;;;;;;16.45;3.88;;;13.00;99.90;;;;;;4959431;28;20047;-96
2022/05/27 05:27:59;;;;;;;13.20;4.10;;;13.00;99.90;;;;;;4963058;29;20046;-95
2022/05/27 05:30:26;;;;;;;14.55;4.45;;;13.00;99.90;;;;;;4957049;29;20051;-95
2022/05/27 05:32:52;;;;;;;13.23;3.60;;;13.10;99.90;;;;;;4955701;29;20039;-93
2022/05/27 05:35:18;;;;;;;12.80;3.80;;;13.10;99.90;;;;;;4943416;29;20040;-92
2022/05/27 05:37:44;;;;;;;13.77;3.83;;;13.20;99.90;;;;;;4949161;29;20090;-92
2022/05/27 05:40:11;;;;;;;13.25;3.47;;;13.30;99.90;;;;;;4948941;29;20066;-91
2022/05/27 05:42:37;;;;;;;12.35;3.28;;;13.30;99.90;;;;;;4930834;29;20047;-92
2022/05/27 05:45:04;;;;;;;13.73;3.58;;;13.50;99.90;;;;;;4924284;29;20471;-93
2022/05/27 05:47:30;;;;;;;13.15;3.80;;;13.40;99.90;;;;;;4930955;29;20518;-93
2022/05/27 05:49:55;;;;;;;13.88;3.30;;;13.40;99.90;;;;;;4945638;28;20056;-92
2022/05/27 05:52:21;;;;;;;12.77;3.67;;;13.50;99.90;;;;;;4949998;29;20452;-92
2022/05/27 05:54:49;;;;;;;13.98;3.80;;;13.50;99.90;;;;;;4946509;29;20095;-95
2022/05/27 05:57:15;;;;;;;17.00;3.92;;;13.50;99.90;;;;;;4951983;29;20035;-94
2022/05/27 05:59:41;;;;;;;11.05;3.22;;;13.50;99.90;;;;;;4950151;29;20050;-95
2022/05/27 06:02:08;;;;;;;12.50;3.63;;;13.40;99.90;;;;;;4942338;29;20504;-92
2022/05/27 06:04:34;;;;;;;11.15;3.15;;;13.40;99.90;;;;;;4953665;28;20506;-90
2022/05/27 06:07:01;;;;;;;11.00;3.10;;;13.40;99.90;;;;;;4956257;28;20047;-94
2022/05/27 06:09:26;;;;;;;11.05;3.00;;;13.60;99.90;;;;;;4957166;29;20071;-91
2022/05/27 06:11:56;;;;;;;13.38;3.63;;;13.70;99.90;;;;;;4952413;29;20446;-93
2022/05/27 06:14:22;;;;;;;13.20;3.47;;;13.90;99.90;;;;;;4946712;28;20027;-92
2022/05/27 06:16:48;;;;;;;12.82;3.10;;;14.00;99.90;;;;;;4929937;29;20135;-90
2022/05/27 06:19:13;;;;;;;11.55;3.42;;;14.10;99.90;;;;;;4950478;29;20107;-95
2022/05/27 06:21:39;;;;;;;12.93;3.45;;;14.10;99.90;;;;;;4977236;23;20059;-93
2022/05/27 06:24:06;;;;;;;13.85;3.35;;;14.20;99.90;;;;;;4982801;23;20058;-93
2022/05/27 06:26:32;;;;;;;11.63;3.53;;;14.30;99.90;;;;;;4975010;28;20057;-94
2022/05/27 06:34:26;;;;;;;12.13;3.33;;;14.30;99.90;;;;;;4991944;28;20061;-92
2022/05/27 06:37:18;;;;;;;10.65;3.30;;;14.20;99.90;;;;;;4978201;28;20492;-93
2022/05/27 06:39:44;;;;;;;11.52;3.65;;;14.20;99.90;;;;;;4967882;28;20050;-95
2022/05/27 06:42:13;;;;;;;12.88;3.30;;;14.20;99.90;;;;;;4969121;28;20055;-94
2022/05/27 06:44:41;;;;;;;;;;;14.20;99.90;;;;;;4979446;28;20377;-94
2022/05/27 06:47:09;;;;;;;12.05;3.28;;;14.20;99.90;;;;;;4972694;28;19957;-93
2022/05/27 06:49:36;;;;;;;11.93;3.20;;;14.40;99.90;;;;;;4943930;28;20120;-94
2022/05/27 06:52:03;;;;;;;13.65;3.55;;;14.40;99.90;;;;;;4976793;28;20039;-91
2022/05/27 06:54:29;;;;;;;10.88;3.65;;;14.50;99.90;;;;;;4974520;28;20046;-95
2022/05/27 06:56:55;;;;;;;12.55;3.28;;;14.50;99.90;;;;;;4956789;28;20165;-94
2022/05/27 06:59:22;;;;;;;13.57;3.22;;;14.60;99.90;;;;;;4993267;28;20043;-94
2022/05/27 07:01:49;;;;;;;13.85;4.13;;;14.50;99.90;;;;;;4975512;28;20050;-90
2022/05/27 07:04:17;;;;;;;14.90;3.20;;;14.50;99.90;;;;;;4954122;28;20039;-94
2022/05/27 07:06:45;;;;;;;12.57;3.05;;;14.50;99.90;;;;;;4971734;28;20058;-92
2022/05/27 07:09:13;;;;;;;11.05;3.42;;;14.60;99.90;;;;;;4975188;28;20444;-95
2022/05/27 07:11:41;;;;;;;10.65;3.00;;;14.60;99.90;;;;;;4973600;28;20050;-91
2022/05/27 07:14:08;;;;;;;11.02;3.10;;;14.70;99.90;;;;;;4968784;28;20094;-95
2022/05/27 07:16:34;;;;;;;11.10;3.25;;;14.60;99.90;;;;;;4955177;28;20691;-91
2022/05/27 07:19:02;;;;;;;13.88;3.05;;;14.50;99.90;;;;;;4967910;28;20040;-93
2022/05/27 07:21:28;;;;;;;12.60;3.05;;;14.40;99.90;;;;;;4955080;28;20038;-88
2022/05/27 07:23:55;;;;;;;13.07;2.90;;;14.20;99.90;;;;;;4969854;28;20155;-92
2022/05/27 07:26:22;;;;;;;11.52;3.10;;;14.30;99.90;;;;;;4967883;28;20051;-92
2022/05/27 07:28:48;;;;;;;11.23;2.70;;;14.30;99.90;;;;;;4949231;28;20038;-91
2022/05/27 07:31:14;;;;;;;11.13;2.88;;;14.40;99.90;;;;;;4969543;28;20053;-94
2022/05/27 07:33:41;;;;;;;12.63;3.67;;;14.50;99.90;;;;;;4954924;28;20101;-90
2022/05/27 07:36:10;;;;;;;9.60;2.95;;;14.50;99.90;;;;;;4954458;28;20058;-94
2022/05/27 07:38:37;;;;;;;12.05;2.55;;;14.60;99.90;;;;;;4976341;28;20049;-94
2022/05/27 07:41:03;;;;;;;11.48;3.05;;;14.70;99.90;;;;;;4977120;28;20043;-93
2022/05/27 07:43:29;;;;;;;15.23;3.60;;;14.60;99.90;;;;;;4974241;28;20043;-93
2022/05/27 07:45:56;;;;;;;11.48;2.90;;;14.60;99.90;;;;;;4935862;28;20049;-91
2022/05/27 07:48:22;;;;;;;11.35;3.20;;;14.50;99.90;;;;;;4953321;28;20038;-93
2022/05/27 07:50:48;;;;;;;10.68;2.88;;;14.70;99.90;;;;;;4969946;28;20046;-93
2022/05/27 07:53:15;;;;;;;12.30;3.08;;;14.70;99.90;;;;;;4977047;28;20039;-95
2022/05/27 07:55:41;;;;;;;14.15;3.35;;;14.70;99.90;;;;;;4961642;28;20055;-94
2022/05/27 07:58:07;;;;;;;12.35;2.90;;;14.70;99.90;;;;;;4954093;28;20400;-93
2022/05/27 08:00:35;;;;;;;15.27;3.75;;;14.70;99.90;;;;;;4971002;28;20331;-90
2022/05/27 08:03:03;;;;;;;12.93;3.28;;;14.80;99.90;;;;;;4957326;28;20043;-93
2022/05/27 08:05:30;;;;;;;14.02;3.33;;;14.70;99.90;;;;;;4969412;28;20064;-93
2022/05/27 08:07:57;;;;;;;11.82;3.10;;;14.80;99.90;;;;;;4954673;28;20505;-91
2022/05/27 08:10:25;;;;;;;11.48;3.22;;;14.80;99.90;;;;;;4972185;28;20109;-93
2022/05/27 08:12:51;;;;;;;12.85;3.13;;;14.80;99.90;;;;;;4973239;28;20496;-95
2022/05/27 08:15:17;;;;;;;14.20;3.20;;;14.90;99.90;;;;;;4956607;28;20050;-92
2022/05/27 08:17:43;;;;;;;13.45;3.65;;;14.90;99.90;;;;;;4971167;28;20304;-92
2022/05/27 08:20:19;;;;;;;13.40;3.40;;;14.90;99.90;;;;;;4973636;28;20053;-94
2022/05/27 08:22:46;;;;;;;11.15;3.25;;;14.90;99.90;;;;;;4956434;28;20065;-93
2022/05/27 08:25:12;;;;;;;11.52;2.90;;;14.70;99.90;;;;;;4973795;28;20105;-94
2022/05/27 08:27:39;;;;;;;14.30;3.80;;;14.70;99.90;;;;;;4971011;28;20051;-94
2022/05/27 08:30:06;;;;;;;15.85;3.50;;;14.80;99.90;;;;;;4958031;28;20043;-94
2022/05/27 08:32:32;;;;;;;11.38;3.15;;;15.00;99.90;;;;;;4956993;28;20479;-92
2022/05/27 08:38:03;;;;;;;11.57;2.72;;;15.10;99.90;;;;;;4972640;28;20058;-94
2022/05/27 08:40:50;;;;;;;13.40;2.90;;;14.80;99.90;;;;;;4974762;28;20043;-94
2022/05/27 08:43:30;;;;;;;11.45;2.90;;;14.70;99.90;;;;;;4974818;28;20038;-93
2022/05/27 08:46:23;;;;;;;11.55;2.42;;;14.70;99.90;;;;;;4967684;28;20078;-95
2022/05/27 08:48:54;;;;;;;11.85;2.35;;;14.80;99.90;;;;;;4976175;28;20054;-95
2022/05/27 08:51:50;;;;;;;13.07;2.85;;;15.00;99.90;;;;;;4974404;28;20039;-92
2022/05/27 08:54:39;;;;;;;13.95;2.90;;;15.00;99.90;;;;;;4955154;28;20034;-94
2022/05/27 09:00:01;;;;;;;11.15;2.47;;;15.20;99.90;;;;;;4977145;28;20078;-96
2022/05/27 09:02:39;;;;;;;11.13;2.97;;;15.30;99.90;;;;;;4958590;28;20093;-92
2022/05/27 09:05:17;;;;;;;12.65;2.80;;;15.30;99.90;;;;;;4979626;28;20046;-95
2022/05/27 09:08:00;;;;;;;15.38;3.20;;;15.30;99.90;;;;;;4958658;28;20086;-95
2022/05/27 09:10:40;;;;;;;12.55;2.78;;;15.30;99.90;;;;;;4970945;28;20094;-90
2022/05/27 09:13:37;;;;;;;11.65;2.80;;;15.20;99.90;;;;;;4961577;28;20058;-94
2022/05/27 09:16:28;;;;;;;13.52;3.67;;;15.20;99.90;;;;;;4976864;28;20051;-96
2022/05/27 09:19:42;;;;;;;12.70;3.38;;;15.00;99.90;;;;;;4959991;28;20093;-90
2022/05/27 09:22:27;;;;;;;13.77;2.60;;;14.90;99.90;;;;;;4953880;28;20078;-93
2022/05/27 09:25:18;;;;;;;11.43;2.40;;;14.80;99.90;;;;;;4939150;28;20078;-93
2022/05/27 09:27:53;;;;;;;9.40;2.55;;;14.80;99.90;;;;;;4961907;28;20089;-96
2022/05/27 09:30:19;;;;;;;11.60;2.60;;;14.90;99.90;;;;;;4960034;28;20047;-91
2022/05/27 09:33:00;;;;;;;10.90;2.95;;;14.90;99.90;;;;;;4958486;28;20050;-94
2022/05/27 09:35:51;;;;;;;11.20;2.20;;;15.00;99.90;;;;;;4961106;28;20107;-95
2022/05/27 09:38:29;;;;;;;12.73;2.70;;;15.00;99.90;;;;;;4976059;28;20065;-95
2022/05/27 09:40:59;;;;;;;12.35;2.50;;;15.20;99.90;;;;;;4968143;28;20054;-95
2022/05/27 09:43:33;;;;;;;14.40;2.45;;;15.40;99.90;;;;;;4977299;28;20061;-93
2022/05/27 09:46:02;;;;;;;10.90;3.28;;;15.60;99.90;;;;;;4975121;28;20270;-95
2022/05/27 09:48:32;;;;;;;10.82;2.53;;;15.60;99.90;;;;;;4957715;28;20108;-93
2022/05/27 09:51:03;;;;;;;10.48;2.70;;;15.60;99.90;;;;;;4969488;28;20504;-93
2022/05/27 09:53:41;;;;;;;10.85;2.47;;;15.50;99.90;;;;;;4960305;28;20077;-96
2022/05/27 09:56:14;;;;;;;11.43;2.13;;;15.50;99.90;;;;;;4977271;28;20125;-95
2022/05/27 09:58:44;;;;;;;10.75;3.13;;;15.40;99.90;;;;;;4977926;28;20070;-95
2022/05/27 10:01:28;;;;;;;11.93;3.08;;;15.40;99.90;;;;;;4961731;28;20050;-95
2022/05/27 10:04:06;;;;;;;10.05;2.50;;;15.30;99.90;;;;;;4977414;28;20046;-89
2022/05/27 10:06:35;;;;;;;10.88;2.63;;;15.20;99.90;;;;;;4974740;28;20046;-95
2022/05/27 10:09:07;;;;;;;10.60;2.42;;;15.20;99.90;;;;;;4962072;28;20038;-93
2022/05/27 10:11:46;;;;;;;8.73;2.30;;;15.20;99.90;;;;;;4977684;28;20495;-94
2022/05/27 10:14:23;;;;;;;11.00;2.45;;;15.20;99.90;;;;;;4973602;28;20047;-91
2022/05/27 10:17:09;;;;;;;10.07;2.35;;;15.20;99.90;;;;;;4975773;28;20162;-95
2022/05/27 10:19:39;;;;;;;12.38;2.70;;;15.20;99.90;;;;;;4961975;28;20042;-93
2022/05/27 10:22:23;;;;;;;10.45;2.97;;;15.20;99.90;;;;;;4980852;28;20043;-94
2022/05/27 10:25:02;;;;;;;11.60;2.33;;;15.10;99.90;;;;;;4977375;28;20098;-94
2022/05/27 10:27:35;;;;;;;11.43;2.53;;;15.30;99.90;;;;;;4964228;28;20078;-96
2022/05/27 10:30:12;;;;;;;12.55;2.92;;;15.40;99.90;;;;;;4975452;28;20034;-96
2022/05/27 10:32:44;;;;;;;11.15;2.05;;;15.40;99.90;;;;;;4991835;28;20057;-96
2022/05/27 10:35:15;;;;;;;9.25;2.45;;;15.30;99.90;;;;;;4963721;28;20045;-95
2022/05/27 10:38:19;;;;;;;11.00;2.33;;;15.20;99.90;;;;;;4968352;28;20299;-95
2022/05/27 10:41:09;;;;;;;10.18;2.30;;;15.20;99.90;;;;;;4974302;28;20110;-92
2022/05/27 10:44:08;;;;;;;12.27;3.30;;;15.30;99.90;;;;;;4978331;28;20046;-95
2022/05/27 10:46:44;;;;;;;10.38;2.33;;;15.30;99.90;;;;;;4975733;28;20089;-94
2022/05/27 10:49:10;;;;;;;10.85;2.60;;;15.40;99.90;;;;;;4960045;28;20035;-95
2022/05/27 10:52:15;;;;;;;10.40;2.55;;;15.50;99.90;;;;;;4975912;28;20062;-92
2022/05/27 10:54:40;;;;;;;10.60;3.03;;;15.70;99.90;;;;;;4920015;29;20055;-94
2022/05/27 11:03:30;;;;;;;10.02;2.40;;;15.40;99.90;;;;;;4900748;29;20138;-93
2022/05/27 11:06:22;;;;;;;12.68;2.55;;;15.40;99.90;;;;;;4882782;29;20131;-91
2022/05/27 11:09:26;;;;;;;9.98;2.55;;;15.50;99.90;;;;;;4906574;29;20079;-92
2022/05/27 11:12:04;;;;;;;9.45;2.42;;;15.60;99.90;;;;;;4920623;29;20089;-93
2022/05/27 11:17:22;;;;;;;11.98;2.88;;;15.40;99.90;;;;;;4942071;29;20446;-94
2022/05/27 11:20:11;;;;;;;11.20;2.65;;;15.40;99.90;;;;;;4907886;29;20055;-93
2022/05/27 11:22:59;;;;;;;11.43;2.25;;;15.60;99.90;;;;;;4919323;29;20051;-95
2022/05/27 11:25:56;;;;;;;10.90;2.80;;;15.80;99.90;;;;;;4919228;29;20063;-96
2022/05/27 11:28:52;;;;;;;9.80;2.40;;;15.80;99.90;;;;;;4901797;29;20055;-93
2022/05/27 11:31:39;;;;;;;11.05;2.58;;;15.80;99.90;;;;;;4942001;29;20138;-93
2022/05/27 11:34:25;;;;;;;11.52;2.78;;;15.70;99.90;;;;;;4958818;29;20051;-94
2022/05/27 11:37:09;;;;;;;10.77;3.03;;;15.70;99.90;;;;;;4957350;29;20039;-92
2022/05/27 11:39:53;;;;;;;12.68;3.55;;;15.60;99.90;;;;;;4958238;29;20134;-96
2022/05/27 11:42:44;;;;;;;13.18;3.03;;;15.50;99.90;;;;;;4963400;28;20058;-92
2022/05/27 11:45:25;;;;;;;10.98;2.60;;;15.40;99.90;;;;;;4979728;28;20046;-92
2022/05/27 11:48:08;;;;;;;12.05;2.78;;;15.50;99.90;;;;;;4962427;28;20106;-92
2022/05/27 11:50:39;;;;;;;10.30;2.20;;;15.50;99.90;;;;;;4969645;28;20519;-90
2022/05/27 11:53:17;;;;;;;9.57;2.38;;;15.50;99.90;;;;;;4974250;28;20046;-95
2022/05/27 11:56:07;;;;;;;11.32;2.53;;;15.40;99.90;;;;;;4972469;28;20093;-90
2022/05/27 11:59:11;;;;;;;10.43;2.38;;;15.30;99.90;;;;;;4955379;28;20035;-93
2022/05/27 12:01:43;;;;;;;12.65;2.95;;;15.40;99.90;;;;;;4918807;29;20210;-95
2022/05/27 12:04:20;;;;;;;12.38;2.95;;;15.40;99.90;;;;;;4901877;29;20048;-96
2022/05/27 12:07:11;;;;;;;10.95;2.67;;;15.50;99.90;;;;;;4917021;29;20044;-93
2022/05/27 12:09:52;;;;;;;9.65;2.45;;;15.50;99.90;;;;;;4887762;29;20100;-94
2022/05/27 12:12:44;;;;;;;13.25;3.63;;;15.60;99.90;;;;;;4906649;29;20056;-94
2022/05/27 12:15:23;;;;;;;;;;;15.70;99.90;;;;;;4882481;29;20081;-92
2022/05/27 12:17:52;;;;;;;13.77;2.70;;;15.80;99.90;;;;;;4865880;29;19923;-94
2022/05/27 12:20:23;;;;;;;11.75;2.50;;;15.90;99.90;;;;;;4900218;29;20119;-91
2022/05/27 12:22:51;;;;;;;9.02;2.42;;;15.90;99.90;;;;;;4915989;29;20437;-96
2022/05/27 12:25:25;;;;;;;10.90;2.38;;;15.90;99.90;;;;;;4899951;29;20108;-90
2022/05/27 12:27:53;;;;;;;11.18;2.28;;;15.90;99.90;;;;;;4898511;29;20040;-92
2022/05/27 12:30:24;;;;;;;11.30;3.38;;;15.80;99.90;;;;;;4899073;29;20076;-92
2022/05/27 12:32:50;;;;;;;12.30;2.92;;;15.70;99.90;;;;;;4884960;29;20540;-93
2022/05/27 12:35:33;;;;;;;12.32;2.83;;;15.70;99.90;;;;;;4901794;29;20044;-94
2022/05/27 12:37:58;;;;;;;12.63;3.13;;;15.80;99.90;;;;;;4953812;28;20055;-94
2022/05/27 12:40:32;;;;;;;10.77;3.13;;;15.70;99.90;;;;;;4951304;28;20042;-93
2022/05/27 12:43:31;;;;;;;12.88;3.28;;;15.60;99.90;;;;;;4977189;28;20302;-93
2022/05/27 12:46:03;;;;;;;12.65;3.10;;;15.60;99.90;;;;;;4980384;28;20039;-94
2022/05/27 12:48:39;;;;;;;11.25;2.78;;;15.60;99.90;;;;;;4984074;28;20043;-95
2022/05/27 12:51:14;;;;;;;13.45;2.80;;;15.70;99.90;;;;;;4987299;28;20051;-92
2022/05/27 12:53:44;;;;;;;13.77;3.10;;;15.60;99.90;;;;;;4967387;28;20102;-96
2022/05/27 13:02:15;;;;;;;11.52;2.75;;;15.50;99.90;;;;;;4968357;28;20055;-96
2022/05/27 13:05:01;;;;;;;10.65;2.42;;;15.50;99.90;;;;;;4960077;29;20058;-96
2022/05/27 13:07:33;;;;;;;12.38;2.80;;;15.60;99.90;;;;;;4959435;29;20051;-93
2022/05/27 13:10:18;;;;;;;12.85;2.67;;;15.60;99.90;;;;;;4974655;28;20047;-95
2022/05/27 13:12:47;;;;;;;12.25;2.50;;;15.70;99.90;;;;;;4964512;28;20102;-94
2022/05/27 13:15:35;;;;;;;12.75;2.60;;;15.60;99.90;;;;;;4964485;28;20046;-94
2022/05/27 13:18:22;;;;;;;11.10;2.83;;;15.60;99.90;;;;;;4984996;28;20481;-95
2022/05/27 13:21:29;;;;;;;13.57;3.72;;;15.50;99.90;;;;;;4979419;28;20122;-95
2022/05/27 13:24:02;;;;;;;14.65;2.97;;;15.40;99.90;;;;;;4969377;28;20103;-95
2022/05/27 13:26:39;;;;;;;11.52;3.03;;;15.50;99.90;;;;;;4976819;28;20046;-96
2022/05/27 13:29:28;;;;;;;13.13;3.30;;;15.60;99.90;;;;;;4981212;28;20042;-94
2022/05/27 13:32:03;;;;;;;12.48;2.88;;;15.70;99.90;;;;;;4967490;28;20089;-94
2022/05/27 13:34:50;;;;;;;11.25;2.55;;;15.60;99.90;;;;;;4979598;28;20055;-92
2022/05/27 13:37:46;;;;;;;10.80;2.25;;;15.60;99.90;;;;;;4962945;28;20342;-91
2022/05/27 13:40:27;;;;;;;9.98;2.65;;;15.60;99.90;;;;;;4984289;28;20046;-94
2022/05/27 13:42:54;;;;;;;;;;;15.60;99.90;;;;;;4999027;28;20133;-96